Hovedside
METAR-TAF:

METAR-TAF

Lufthavner :

Benson, England

breddegrad: 51-37N, lengdegrad: 001-05W, høyde over havet: 63 m

Gjeldene værobservasjon

Denne rapporten ble laget for 25 minutter siden, klokken 14:50 UTC
Vind 6 kt fra Sør
Temperatur 27°C
Luftfuktighet 51%
Trykk 1019 hPa
Sikt 10 km eller mer
Få skyer i en høyde av 4900 ft

METAR: EGUB 181450Z 17006KT 9999 FEW049 27/16 Q1019 NOSIG RMK BLU BLU

Tid: 16:15 (15:15 UTC)

Varsel

Denne rapporten ble laget for 1 time og 28 minutter siden, klokken 13:47 UTC
Varsel gyldig fra 18. klokken 15 UTC til 18. klokken 24 UTC
Vind 5 kt fra Sør
Sikt 10 km eller mer
Få skyer i en høyde av 4800 ft

TAF: EGUB 181347Z 1815/1824 19005KT 9999 FEW048

Værobservasjoner og værvarsel for over 4000 flyplasser (METAR- og TAF-rapporter).

Tilgjengelige stasjoner er representert av de røde og gule prikkene på kartet.

Hold musepekeren over prikken for å se navnet på stasjonen.

Klikk så for å se værobservasjoner og -varsler.

For å forandre kartet kan du klikke på den grønne knappen med svart kryss for å zoome inn, på den grønne knappen med strek for å zoome ut, eller på de grønne pilene for å se tilstøtende kart.


METAR-TAF: